sensor_id;sensor_type;location;lat;lon;timestamp;temperature;humidity
17632;DHT22;8934;51.194;17.150;2023-02-01T00:02:43;2.90;99.90
17632;DHT22;8934;51.194;17.150;2023-02-01T00:05:30;2.90;99.90
17632;DHT22;8934;51.194;17.150;2023-02-01T00:08:17;2.90;99.90
17632;DHT22;8934;51.194;17.150;2023-02-01T00:11:07;2.80;99.90
17632;DHT22;8934;51.194;17.150;2023-02-01T00:13:55;2.80;99.90
17632;DHT22;8934;51.194;17.150;2023-02-01T00:16:42;2.70;99.90
17632;DHT22;8934;51.194;17.150;2023-02-01T00:19:30;2.60;99.90
17632;DHT22;8934;51.194;17.150;2023-02-01T00:22:18;2.60;99.90
17632;DHT22;8934;51.194;17.150;2023-02-01T00:25:06;2.50;99.90
17632;DHT22;8934;51.194;17.150;2023-02-01T00:27:53;2.40;99.90
17632;DHT22;8934;51.194;17.150;2023-02-01T00:30:43;2.40;99.90
17632;DHT22;8934;51.194;17.150;2023-02-01T00:33:31;2.30;99.90
17632;DHT22;8934;51.194;17.150;2023-02-01T00:36:21;2.30;99.90
17632;DHT22;8934;51.194;17.150;2023-02-01T00:39:09;2.40;99.90
17632;DHT22;8934;51.194;17.150;2023-02-01T00:41:57;2.50;99.90
17632;DHT22;8934;51.194;17.150;2023-02-01T00:44:44;2.50;99.90
17632;DHT22;8934;51.194;17.150;2023-02-01T00:47:32;2.60;99.90
17632;DHT22;8934;51.194;17.150;2023-02-01T00:50:19;2.60;99.90
17632;DHT22;8934;51.194;17.150;2023-02-01T00:53:10;2.60;99.90
17632;DHT22;8934;51.194;17.150;2023-02-01T00:55:58;2.70;99.90
17632;DHT22;8934;51.194;17.150;2023-02-01T00:58:46;2.80;99.90
17632;DHT22;8934;51.194;17.150;2023-02-01T01:01:33;2.80;99.90
17632;DHT22;8934;51.194;17.150;2023-02-01T01:04:21;2.90;99.90
17632;DHT22;8934;51.194;17.150;2023-02-01T01:07:08;2.90;99.90
17632;DHT22;8934;51.194;17.150;2023-02-01T01:09:58;2.90;99.90
17632;DHT22;8934;51.194;17.150;2023-02-01T01:12:45;2.90;99.90
17632;DHT22;8934;51.194;17.150;2023-02-01T01:15:35;2.90;99.90
17632;DHT22;8934;51.194;17.150;2023-02-01T01:18:24;2.90;99.90
17632;DHT22;8934;51.194;17.150;2023-02-01T01:21:14;2.90;99.90
17632;DHT22;8934;51.194;17.150;2023-02-01T01:24:02;3.00;99.90
17632;DHT22;8934;51.194;17.150;2023-02-01T01:26:51;3.00;99.90
17632;DHT22;8934;51.194;17.150;2023-02-01T01:29:40;2.90;99.90
17632;DHT22;8934;51.194;17.150;2023-02-01T01:32:27;2.90;99.90
17632;DHT22;8934;51.194;17.150;2023-02-01T01:35:15;3.00;99.90
17632;DHT22;8934;51.194;17.150;2023-02-01T01:38:03;3.00;99.90
17632;DHT22;8934;51.194;17.150;2023-02-01T01:40:51;3.00;99.90
17632;DHT22;8934;51.194;17.150;2023-02-01T01:43:57;3.00;99.90
17632;DHT22;8934;51.194;17.150;2023-02-01T01:46:46;3.00;99.90
17632;DHT22;8934;51.194;17.150;2023-02-01T01:49:33;3.00;99.90
17632;DHT22;8934;51.194;17.150;2023-02-01T01:52:21;3.00;99.90
17632;DHT22;8934;51.194;17.150;2023-02-01T01:55:09;3.00;99.90
17632;DHT22;8934;51.194;17.150;2023-02-01T01:58:00;3.00;99.90
17632;DHT22;8934;51.194;17.150;2023-02-01T02:00:51;3.00;99.90
17632;DHT22;8934;51.194;17.150;2023-02-01T02:03:40;3.00;99.90
17632;DHT22;8934;51.194;17.150;2023-02-01T02:06:38;3.00;99.90
17632;DHT22;8934;51.194;17.150;2023-02-01T02:09:27;3.00;99.90
17632;DHT22;8934;51.194;17.150;2023-02-01T02:12:15;3.00;99.90
17632;DHT22;8934;51.194;17.150;2023-02-01T02:15:04;3.00;99.90
17632;DHT22;8934;51.194;17.150;2023-02-01T02:17:57;3.00;99.90
17632;DHT22;8934;51.194;17.150;2023-02-01T02:20:58;3.00;99.90
17632;DHT22;8934;51.194;17.150;2023-02-01T02:24:26;3.00;99.90
17632;DHT22;8934;51.194;17.150;2023-02-01T02:27:23;3.00;99.90
17632;DHT22;8934;51.194;17.150;2023-02-01T02:30:36;3.00;99.90
17632;DHT22;8934;51.194;17.150;2023-02-01T02:33:50;2.90;99.90
17632;DHT22;8934;51.194;17.150;2023-02-01T02:36:49;2.90;99.90
17632;DHT22;8934;51.194;17.150;2023-02-01T02:39:45;2.90;99.90
17632;DHT22;8934;51.194;17.150;2023-02-01T02:42:41;2.90;99.90
17632;DHT22;8934;51.194;17.150;2023-02-01T02:45:50;2.90;99.90
17632;DHT22;8934;51.194;17.150;2023-02-01T02:52:25;3.10;99.90
17632;DHT22;8934;51.194;17.150;2023-02-01T02:55:30;3.10;99.90
17632;DHT22;8934;51.194;17.150;2023-02-01T02:58:19;3.10;99.90
17632;DHT22;8934;51.194;17.150;2023-02-01T03:01:26;3.20;99.90
17632;DHT22;8934;51.194;17.150;2023-02-01T03:04:32;3.20;99.90
17632;DHT22;8934;51.194;17.150;2023-02-01T03:07:55;3.30;99.90
17632;DHT22;8934;51.194;17.150;2023-02-01T03:10:52;3.40;99.90
17632;DHT22;8934;51.194;17.150;2023-02-01T03:13:45;3.50;99.90
17632;DHT22;8934;51.194;17.150;2023-02-01T03:16:36;3.60;99.90
17632;DHT22;8934;51.194;17.150;2023-02-01T03:19:31;3.60;99.90
17632;DHT22;8934;51.194;17.150;2023-02-01T03:22:22;3.70;99.90
17632;DHT22;8934;51.194;17.150;2023-02-01T03:25:14;3.70;99.90
17632;DHT22;8934;51.194;17.150;2023-02-01T03:28:07;3.80;99.90
17632;DHT22;8934;51.194;17.150;2023-02-01T03:30:57;3.80;99.90
17632;DHT22;8934;51.194;17.150;2023-02-01T03:33:45;3.80;99.90
17632;DHT22;8934;51.194;17.150;2023-02-01T03:36:37;3.80;99.90
17632;DHT22;8934;51.194;17.150;2023-02-01T03:39:30;3.70;99.90
17632;DHT22;8934;51.194;17.150;2023-02-01T03:42:26;3.80;99.90
17632;DHT22;8934;51.194;17.150;2023-02-01T03:45:20;3.70;99.90
17632;DHT22;8934;51.194;17.150;2023-02-01T03:48:11;3.80;99.90
17632;DHT22;8934;51.194;17.150;2023-02-01T03:51:02;3.80;99.90
17632;DHT22;8934;51.194;17.150;2023-02-01T03:53:53;3.70;99.90
17632;DHT22;8934;51.194;17.150;2023-02-01T03:56:43;3.70;99.90
17632;DHT22;8934;51.194;17.150;2023-02-01T03:59:32;3.70;99.90
17632;DHT22;8934;51.194;17.150;2023-02-01T04:02:20;3.70;99.90
17632;DHT22;8934;51.194;17.150;2023-02-01T04:05:08;3.70;99.90
17632;DHT22;8934;51.194;17.150;2023-02-01T04:07:59;3.70;99.90
17632;DHT22;8934;51.194;17.150;2023-02-01T04:10:47;3.70;99.90
17632;DHT22;8934;51.194;17.150;2023-02-01T04:13:34;3.60;99.90
17632;DHT22;8934;51.194;17.150;2023-02-01T04:16:23;3.60;99.90
17632;DHT22;8934;51.194;17.150;2023-02-01T04:19:11;3.50;99.90
17632;DHT22;8934;51.194;17.150;2023-02-01T04:21:58;3.50;99.90
17632;DHT22;8934;51.194;17.150;2023-02-01T04:24:45;3.40;99.90
17632;DHT22;8934;51.194;17.150;2023-02-01T04:27:34;3.30;99.90
17632;DHT22;8934;51.194;17.150;2023-02-01T04:30:21;3.40;99.90
17632;DHT22;8934;51.194;17.150;2023-02-01T04:33:11;3.40;99.90
17632;DHT22;8934;51.194;17.150;2023-02-01T04:36:00;3.30;99.90
17632;DHT22;8934;51.194;17.150;2023-02-01T04:38:48;3.40;99.90
17632;DHT22;8934;51.194;17.150;2023-02-01T04:41:36;3.50;99.90
17632;DHT22;8934;51.194;17.150;2023-02-01T04:44:23;3.50;99.90
17632;DHT22;8934;51.194;17.150;2023-02-01T04:47:11;3.60;99.90
17632;DHT22;8934;51.194;17.150;2023-02-01T04:50:00;3.60;99.90
17632;DHT22;8934;51.194;17.150;2023-02-01T04:52:47;3.60;99.90
17632;DHT22;8934;51.194;17.150;2023-02-01T04:55:35;3.70;99.90
17632;DHT22;8934;51.194;17.150;2023-02-01T04:58:23;3.80;99.90
17632;DHT22;8934;51.194;17.150;2023-02-01T05:01:11;3.90;99.90
17632;DHT22;8934;51.194;17.150;2023-02-01T05:03:58;3.90;99.90
17632;DHT22;8934;51.194;17.150;2023-02-01T05:06:47;4.00;99.90
17632;DHT22;8934;51.194;17.150;2023-02-01T05:09:34;4.00;99.90
17632;DHT22;8934;51.194;17.150;2023-02-01T05:12:22;4.00;99.90
17632;DHT22;8934;51.194;17.150;2023-02-01T05:15:26;4.00;99.90
17632;DHT22;8934;51.194;17.150;2023-02-01T05:18:14;4.10;99.90
17632;DHT22;8934;51.194;17.150;2023-02-01T05:21:02;4.20;99.90
17632;DHT22;8934;51.194;17.150;2023-02-01T05:23:51;4.30;99.90
17632;DHT22;8934;51.194;17.150;2023-02-01T05:26:58;4.30;99.90
17632;DHT22;8934;51.194;17.150;2023-02-01T05:29:46;4.30;99.90
17632;DHT22;8934;51.194;17.150;2023-02-01T05:32:34;4.40;99.90
17632;DHT22;8934;51.194;17.150;2023-02-01T05:35:21;4.40;99.90
17632;DHT22;8934;51.194;17.150;2023-02-01T05:38:09;4.40;99.90
17632;DHT22;8934;51.194;17.150;2023-02-01T05:40:58;4.40;99.90
17632;DHT22;8934;51.194;17.150;2023-02-01T05:43:46;4.40;99.90
17632;DHT22;8934;51.194;17.150;2023-02-01T05:46:34;4.30;99.90
17632;DHT22;8934;51.194;17.150;2023-02-01T05:49:22;4.20;99.90
17632;DHT22;8934;51.194;17.150;2023-02-01T05:52:09;4.20;99.90
17632;DHT22;8934;51.194;17.150;2023-02-01T05:54:56;4.10;99.90
17632;DHT22;8934;51.194;17.150;2023-02-01T05:57:46;4.10;99.90
17632;DHT22;8934;51.194;17.150;2023-02-01T06:00:34;4.10;99.90
17632;DHT22;8934;51.194;17.150;2023-02-01T06:03:22;4.10;99.90
17632;DHT22;8934;51.194;17.150;2023-02-01T06:06:09;4.10;99.90
17632;DHT22;8934;51.194;17.150;2023-02-01T06:08:57;4.00;99.90
17632;DHT22;8934;51.194;17.150;2023-02-01T06:11:45;4.00;99.90
17632;DHT22;8934;51.194;17.150;2023-02-01T06:14:34;4.00;99.90
17632;DHT22;8934;51.194;17.150;2023-02-01T06:17:23;4.00;99.90
17632;DHT22;8934;51.194;17.150;2023-02-01T06:20:12;4.10;99.90
17632;DHT22;8934;51.194;17.150;2023-02-01T06:23:00;4.20;99.90
17632;DHT22;8934;51.194;17.150;2023-02-01T06:25:48;4.20;99.90
17632;DHT22;8934;51.194;17.150;2023-02-01T06:28:35;4.20;99.90
17632;DHT22;8934;51.194;17.150;2023-02-01T06:31:24;4.30;99.90
17632;DHT22;8934;51.194;17.150;2023-02-01T06:34:12;4.30;99.90
17632;DHT22;8934;51.194;17.150;2023-02-01T06:37:00;4.40;99.90
17632;DHT22;8934;51.194;17.150;2023-02-01T06:39:47;4.40;99.90
17632;DHT22;8934;51.194;17.150;2023-02-01T06:42:34;4.40;99.90
17632;DHT22;8934;51.194;17.150;2023-02-01T06:45:22;4.40;99.90
17632;DHT22;8934;51.194;17.150;2023-02-01T06:48:11;4.40;99.90
17632;DHT22;8934;51.194;17.150;2023-02-01T06:50:58;4.40;99.90
17632;DHT22;8934;51.194;17.150;2023-02-01T06:53:46;4.40;99.90
17632;DHT22;8934;51.194;17.150;2023-02-01T06:56:34;4.40;99.90
17632;DHT22;8934;51.194;17.150;2023-02-01T06:59:21;4.50;99.90
17632;DHT22;8934;51.194;17.150;2023-02-01T07:02:10;4.50;99.90
17632;DHT22;8934;51.194;17.150;2023-02-01T07:04:59;4.60;99.90
17632;DHT22;8934;51.194;17.150;2023-02-01T07:07:47;4.60;99.90
17632;DHT22;8934;51.194;17.150;2023-02-01T07:10:35;4.70;99.90
17632;DHT22;8934;51.194;17.150;2023-02-01T07:13:22;4.70;99.90
17632;DHT22;8934;51.194;17.150;2023-02-01T07:16:12;4.70;99.90
17632;DHT22;8934;51.194;17.150;2023-02-01T07:19:00;4.70;99.90
17632;DHT22;8934;51.194;17.150;2023-02-01T07:21:49;4.70;99.90
17632;DHT22;8934;51.194;17.150;2023-02-01T07:24:36;4.80;99.90
17632;DHT22;8934;51.194;17.150;2023-02-01T07:27:24;4.80;99.90
17632;DHT22;8934;51.194;17.150;2023-02-01T07:30:12;4.80;99.90
17632;DHT22;8934;51.194;17.150;2023-02-01T07:33:00;4.90;99.90
17632;DHT22;8934;51.194;17.150;2023-02-01T07:35:49;4.90;99.90
17632;DHT22;8934;51.194;17.150;2023-02-01T07:38:38;4.90;99.90
17632;DHT22;8934;51.194;17.150;2023-02-01T07:41:26;5.00;99.90
17632;DHT22;8934;51.194;17.150;2023-02-01T07:44:13;5.00;99.90
17632;DHT22;8934;51.194;17.150;2023-02-01T07:47:01;5.00;99.90
17632;DHT22;8934;51.194;17.150;2023-02-01T07:49:48;5.10;99.90
17632;DHT22;8934;51.194;17.150;2023-02-01T07:52:36;5.00;99.90
17632;DHT22;8934;51.194;17.150;2023-02-01T07:55:25;5.00;99.90
17632;DHT22;8934;51.194;17.150;2023-02-01T07:58:13;4.90;99.90
17632;DHT22;8934;51.194;17.150;2023-02-01T08:01:00;5.00;99.90
17632;DHT22;8934;51.194;17.150;2023-02-01T08:04:05;5.10;99.90
17632;DHT22;8934;51.194;17.150;2023-02-01T08:06:53;5.10;99.90
17632;DHT22;8934;51.194;17.150;2023-02-01T08:09:41;5.10;99.90
17632;DHT22;8934;51.194;17.150;2023-02-01T08:12:29;5.20;99.90
17632;DHT22;8934;51.194;17.150;2023-02-01T08:15:17;5.20;99.90
17632;DHT22;8934;51.194;17.150;2023-02-01T08:18:05;5.20;99.90
17632;DHT22;8934;51.194;17.150;2023-02-01T08:20:52;5.10;99.90
17632;DHT22;8934;51.194;17.150;2023-02-01T08:23:41;5.20;99.90
17632;DHT22;8934;51.194;17.150;2023-02-01T08:26:29;5.20;99.90
17632;DHT22;8934;51.194;17.150;2023-02-01T08:29:18;5.30;99.90
17632;DHT22;8934;51.194;17.150;2023-02-01T08:32:06;5.30;99.90
17632;DHT22;8934;51.194;17.150;2023-02-01T08:34:54;5.30;99.90
17632;DHT22;8934;51.194;17.150;2023-02-01T08:37:42;5.40;99.90
17632;DHT22;8934;51.194;17.150;2023-02-01T08:40:30;5.40;99.90
17632;DHT22;8934;51.194;17.150;2023-02-01T08:43:18;5.40;99.90
17632;DHT22;8934;51.194;17.150;2023-02-01T08:46:08;5.40;99.90
17632;DHT22;8934;51.194;17.150;2023-02-01T08:48:56;5.40;99.90
17632;DHT22;8934;51.194;17.150;2023-02-01T08:51:44;5.40;99.90
17632;DHT22;8934;51.194;17.150;2023-02-01T08:54:31;5.30;99.90
17632;DHT22;8934;51.194;17.150;2023-02-01T08:57:19;5.30;99.90
17632;DHT22;8934;51.194;17.150;2023-02-01T09:00:08;5.30;99.90
17632;DHT22;8934;51.194;17.150;2023-02-01T09:02:59;5.30;99.90
17632;DHT22;8934;51.194;17.150;2023-02-01T09:05:47;5.30;99.90
17632;DHT22;8934;51.194;17.150;2023-02-01T09:08:36;5.40;99.90
17632;DHT22;8934;51.194;17.150;2023-02-01T09:11:24;5.40;99.90
17632;DHT22;8934;51.194;17.150;2023-02-01T09:14:12;5.50;99.90
17632;DHT22;8934;51.194;17.150;2023-02-01T09:17:00;5.40;99.90
17632;DHT22;8934;51.194;17.150;2023-02-01T09:19:49;5.30;99.90
17632;DHT22;8934;51.194;17.150;2023-02-01T09:22:37;5.20;99.90
17632;DHT22;8934;51.194;17.150;2023-02-01T09:25:24;5.20;99.90
17632;DHT22;8934;51.194;17.150;2023-02-01T09:28:12;5.20;99.90
17632;DHT22;8934;51.194;17.150;2023-02-01T09:31:00;5.10;99.90
17632;DHT22;8934;51.194;17.150;2023-02-01T09:33:48;5.10;99.90
17632;DHT22;8934;51.194;17.150;2023-02-01T09:36:37;5.10;99.90
17632;DHT22;8934;51.194;17.150;2023-02-01T09:39:25;5.10;99.90
17632;DHT22;8934;51.194;17.150;2023-02-01T09:42:21;5.10;99.90
17632;DHT22;8934;51.194;17.150;2023-02-01T09:45:22;5.20;99.90
17632;DHT22;8934;51.194;17.150;2023-02-01T09:48:13;5.30;99.90
17632;DHT22;8934;51.194;17.150;2023-02-01T09:51:06;5.30;99.90
17632;DHT22;8934;51.194;17.150;2023-02-01T09:54:02;5.40;99.90
17632;DHT22;8934;51.194;17.150;2023-02-01T09:56:54;5.40;99.90
17632;DHT22;8934;51.194;17.150;2023-02-01T09:59:46;5.50;99.90
17632;DHT22;8934;51.194;17.150;2023-02-01T10:02:39;5.60;99.90
17632;DHT22;8934;51.194;17.150;2023-02-01T10:05:43;5.70;99.90
17632;DHT22;8934;51.194;17.150;2023-02-01T10:08:48;5.80;99.90
17632;DHT22;8934;51.194;17.150;2023-02-01T10:11:51;5.80;99.90
17632;DHT22;8934;51.194;17.150;2023-02-01T10:14:55;5.80;99.90
17632;DHT22;8934;51.194;17.150;2023-02-01T10:17:53;5.80;99.90
17632;DHT22;8934;51.194;17.150;2023-02-01T10:20:52;5.80;99.90
17632;DHT22;8934;51.194;17.150;2023-02-01T10:23:57;5.80;99.90
17632;DHT22;8934;51.194;17.150;2023-02-01T10:27:13;5.70;99.90
17632;DHT22;8934;51.194;17.150;2023-02-01T10:30:06;5.70;99.90
17632;DHT22;8934;51.194;17.150;2023-02-01T10:33:07;5.60;99.90
17632;DHT22;8934;51.194;17.150;2023-02-01T10:36:08;5.60;99.90
17632;DHT22;8934;51.194;17.150;2023-02-01T10:38:58;5.60;99.90
17632;DHT22;8934;51.194;17.150;2023-02-01T10:41:47;5.60;99.90
17632;DHT22;8934;51.194;17.150;2023-02-01T10:44:42;5.50;99.90
17632;DHT22;8934;51.194;17.150;2023-02-01T10:47:32;5.50;99.90
17632;DHT22;8934;51.194;17.150;2023-02-01T10:50:29;5.40;99.90
17632;DHT22;8934;51.194;17.150;2023-02-01T10:53:22;5.40;99.90
17632;DHT22;8934;51.194;17.150;2023-02-01T10:56:12;5.40;99.90
17632;DHT22;8934;51.194;17.150;2023-02-01T10:59:01;5.40;99.90
17632;DHT22;8934;51.194;17.150;2023-02-01T11:01:58;5.40;99.90
17632;DHT22;8934;51.194;17.150;2023-02-01T11:04:46;5.40;99.90
17632;DHT22;8934;51.194;17.150;2023-02-01T11:07:34;5.40;99.90
17632;DHT22;8934;51.194;17.150;2023-02-01T11:10:37;5.40;99.90
17632;DHT22;8934;51.194;17.150;2023-02-01T11:13:31;5.40;99.90
17632;DHT22;8934;51.194;17.150;2023-02-01T11:16:29;5.30;99.90
17632;DHT22;8934;51.194;17.150;2023-02-01T11:19:19;5.30;99.90
17632;DHT22;8934;51.194;17.150;2023-02-01T11:22:06;5.30;99.90
17632;DHT22;8934;51.194;17.150;2023-02-01T11:24:54;5.20;99.90
17632;DHT22;8934;51.194;17.150;2023-02-01T11:27:43;5.10;99.90
17632;DHT22;8934;51.194;17.150;2023-02-01T11:30:42;5.10;99.90
17632;DHT22;8934;51.194;17.150;2023-02-01T11:33:33;5.10;99.90
17632;DHT22;8934;51.194;17.150;2023-02-01T11:36:27;5.10;99.90
17632;DHT22;8934;51.194;17.150;2023-02-01T11:39:24;5.10;99.90
17632;DHT22;8934;51.194;17.150;2023-02-01T11:42:12;5.10;99.90
17632;DHT22;8934;51.194;17.150;2023-02-01T11:45:20;5.00;99.90
17632;DHT22;8934;51.194;17.150;2023-02-01T11:48:15;5.00;99.90
17632;DHT22;8934;51.194;17.150;2023-02-01T11:51:30;5.00;99.90
17632;DHT22;8934;51.194;17.150;2023-02-01T11:54:35;5.00;99.90
17632;DHT22;8934;51.194;17.150;2023-02-01T11:57:39;5.00;99.90
17632;DHT22;8934;51.194;17.150;2023-02-01T12:00:47;5.10;99.90
17632;DHT22;8934;51.194;17.150;2023-02-01T12:03:59;5.10;99.90
17632;DHT22;8934;51.194;17.150;2023-02-01T12:06:52;5.00;99.90
17632;DHT22;8934;51.194;17.150;2023-02-01T12:12:59;4.90;99.90
17632;DHT22;8934;51.194;17.150;2023-02-01T12:16:00;4.90;99.90
17632;DHT22;8934;51.194;17.150;2023-02-01T12:19:13;4.80;99.90
17632;DHT22;8934;51.194;17.150;2023-02-01T12:22:18;4.80;99.90
17632;DHT22;8934;51.194;17.150;2023-02-01T12:25:26;4.70;99.90
17632;DHT22;8934;51.194;17.150;2023-02-01T12:28:30;4.80;99.90
17632;DHT22;8934;51.194;17.150;2023-02-01T12:31:32;4.80;99.90
17632;DHT22;8934;51.194;17.150;2023-02-01T12:37:55;5.00;99.90
17632;DHT22;8934;51.194;17.150;2023-02-01T12:40:53;5.00;99.90
17632;DHT22;8934;51.194;17.150;2023-02-01T12:43:46;5.00;99.90
17632;DHT22;8934;51.194;17.150;2023-02-01T12:46:40;5.00;99.90
17632;DHT22;8934;51.194;17.150;2023-02-01T12:49:37;5.00;99.90
17632;DHT22;8934;51.194;17.150;2023-02-01T12:52:32;4.90;99.90
17632;DHT22;8934;51.194;17.150;2023-02-01T12:55:27;4.90;99.90
17632;DHT22;8934;51.194;17.150;2023-02-01T12:58:20;4.90;99.90
17632;DHT22;8934;51.194;17.150;2023-02-01T13:01:14;4.90;99.90
17632;DHT22;8934;51.194;17.150;2023-02-01T13:04:08;4.80;99.90
17632;DHT22;8934;51.194;17.150;2023-02-01T13:07:04;4.80;99.90
17632;DHT22;8934;51.194;17.150;2023-02-01T13:09:57;4.80;99.90
17632;DHT22;8934;51.194;17.150;2023-02-01T13:12:53;4.80;99.90
17632;DHT22;8934;51.194;17.150;2023-02-01T13:15:45;4.80;99.90
17632;DHT22;8934;51.194;17.150;2023-02-01T13:18:35;4.80;99.90
17632;DHT22;8934;51.194;17.150;2023-02-01T13:21:26;4.90;99.90
17632;DHT22;8934;51.194;17.150;2023-02-01T13:24:26;4.90;99.90
17632;DHT22;8934;51.194;17.150;2023-02-01T13:27:15;5.00;99.90
17632;DHT22;8934;51.194;17.150;2023-02-01T13:30:10;4.90;99.90
17632;DHT22;8934;51.194;17.150;2023-02-01T13:33:13;4.90;99.90
17632;DHT22;8934;51.194;17.150;2023-02-01T13:36:33;4.90;99.90
17632;DHT22;8934;51.194;17.150;2023-02-01T13:39:45;4.90;99.90
17632;DHT22;8934;51.194;17.150;2023-02-01T13:42:44;4.90;99.90
17632;DHT22;8934;51.194;17.150;2023-02-01T13:45:36;4.90;99.90
17632;DHT22;8934;51.194;17.150;2023-02-01T13:48:29;4.90;99.90
17632;DHT22;8934;51.194;17.150;2023-02-01T13:51:34;4.90;99.90
17632;DHT22;8934;51.194;17.150;2023-02-01T13:54:28;4.90;99.90
17632;DHT22;8934;51.194;17.150;2023-02-01T13:57:35;4.90;99.90
17632;DHT22;8934;51.194;17.150;2023-02-01T14:00:25;4.80;99.90
17632;DHT22;8934;51.194;17.150;2023-02-01T14:03:20;4.80;99.90
17632;DHT22;8934;51.194;17.150;2023-02-01T14:06:36;4.80;99.90
17632;DHT22;8934;51.194;17.150;2023-02-01T14:09:33;4.80;99.90
17632;DHT22;8934;51.194;17.150;2023-02-01T14:12:45;4.90;99.90
17632;DHT22;8934;51.194;17.150;2023-02-01T14:15:33;5.00;99.90
17632;DHT22;8934;51.194;17.150;2023-02-01T14:18:56;5.10;99.90
17632;DHT22;8934;51.194;17.150;2023-02-01T14:21:48;5.20;99.90
17632;DHT22;8934;51.194;17.150;2023-02-01T14:24:41;5.20;99.90
17632;DHT22;8934;51.194;17.150;2023-02-01T14:27:38;5.10;99.90
17632;DHT22;8934;51.194;17.150;2023-02-01T14:30:26;5.10;99.90
17632;DHT22;8934;51.194;17.150;2023-02-01T14:33:20;5.10;99.90
17632;DHT22;8934;51.194;17.150;2023-02-01T14:36:12;5.00;99.90
17632;DHT22;8934;51.194;17.150;2023-02-01T14:39:00;4.90;99.90
17632;DHT22;8934;51.194;17.150;2023-02-01T14:41:53;4.90;99.90
17632;DHT22;8934;51.194;17.150;2023-02-01T14:44:48;4.80;99.90
17632;DHT22;8934;51.194;17.150;2023-02-01T14:47:45;4.80;99.90
17632;DHT22;8934;51.194;17.150;2023-02-01T14:50:35;4.80;99.90
17632;DHT22;8934;51.194;17.150;2023-02-01T14:53:33;4.80;99.90
17632;DHT22;8934;51.194;17.150;2023-02-01T14:56:21;4.80;99.90
17632;DHT22;8934;51.194;17.150;2023-02-01T14:59:12;4.70;99.90
17632;DHT22;8934;51.194;17.150;2023-02-01T15:02:02;4.70;99.90
17632;DHT22;8934;51.194;17.150;2023-02-01T15:08:26;4.60;99.90
17632;DHT22;8934;51.194;17.150;2023-02-01T15:11:16;4.50;99.90
17632;DHT22;8934;51.194;17.150;2023-02-01T15:14:14;4.50;99.90
17632;DHT22;8934;51.194;17.150;2023-02-01T15:17:02;4.50;99.90
17632;DHT22;8934;51.194;17.150;2023-02-01T15:19:53;4.60;99.90
17632;DHT22;8934;51.194;17.150;2023-02-01T15:22:42;4.50;99.90
17632;DHT22;8934;51.194;17.150;2023-02-01T15:25:31;4.50;99.90
17632;DHT22;8934;51.194;17.150;2023-02-01T15:28:20;4.40;99.90
17632;DHT22;8934;51.194;17.150;2023-02-01T15:31:09;4.40;99.90
17632;DHT22;8934;51.194;17.150;2023-02-01T15:33:59;4.40;99.90
17632;DHT22;8934;51.194;17.150;2023-02-01T15:36:48;4.60;99.90
17632;DHT22;8934;51.194;17.150;2023-02-01T15:40:17;4.60;99.90
17632;DHT22;8934;51.194;17.150;2023-02-01T15:43:12;4.60;99.90
17632;DHT22;8934;51.194;17.150;2023-02-01T15:46:03;4.60;99.90
17632;DHT22;8934;51.194;17.150;2023-02-01T15:48:54;4.60;99.90
17632;DHT22;8934;51.194;17.150;2023-02-01T15:51:44;4.60;99.90
17632;DHT22;8934;51.194;17.150;2023-02-01T15:54:43;4.60;99.90
17632;DHT22;8934;51.194;17.150;2023-02-01T15:57:36;4.60;99.90
17632;DHT22;8934;51.194;17.150;2023-02-01T16:00:28;4.60;99.90
17632;DHT22;8934;51.194;17.150;2023-02-01T16:03:33;4.60;99.90
17632;DHT22;8934;51.194;17.150;2023-02-01T16:06:29;4.60;99.90
17632;DHT22;8934;51.194;17.150;2023-02-01T16:09:18;4.60;99.90
17632;DHT22;8934;51.194;17.150;2023-02-01T16:12:26;4.60;99.90
17632;DHT22;8934;51.194;17.150;2023-02-01T16:15:15;4.50;99.90
17632;DHT22;8934;51.194;17.150;2023-02-01T16:18:03;4.50;99.90
17632;DHT22;8934;51.194;17.150;2023-02-01T16:20:52;4.50;99.90
17632;DHT22;8934;51.194;17.150;2023-02-01T16:23:40;4.50;99.90
17632;DHT22;8934;51.194;17.150;2023-02-01T16:26:27;4.40;99.90
17632;DHT22;8934;51.194;17.150;2023-02-01T16:29:15;4.40;99.90
17632;DHT22;8934;51.194;17.150;2023-02-01T16:32:03;4.40;99.90
17632;DHT22;8934;51.194;17.150;2023-02-01T16:34:51;4.40;99.90
17632;DHT22;8934;51.194;17.150;2023-02-01T16:37:41;4.50;99.90
17632;DHT22;8934;51.194;17.150;2023-02-01T16:40:28;4.50;99.90
17632;DHT22;8934;51.194;17.150;2023-02-01T16:43:18;4.50;99.90
17632;DHT22;8934;51.194;17.150;2023-02-01T16:46:10;4.50;99.90
17632;DHT22;8934;51.194;17.150;2023-02-01T16:48:59;4.50;99.90
17632;DHT22;8934;51.194;17.150;2023-02-01T16:51:48;4.50;99.90
17632;DHT22;8934;51.194;17.150;2023-02-01T16:54:40;4.50;99.90
17632;DHT22;8934;51.194;17.150;2023-02-01T16:57:28;4.40;99.90
17632;DHT22;8934;51.194;17.150;2023-02-01T17:00:16;4.40;99.90
17632;DHT22;8934;51.194;17.150;2023-02-01T17:03:11;4.40;99.90
17632;DHT22;8934;51.194;17.150;2023-02-01T17:06:03;4.40;99.90
17632;DHT22;8934;51.194;17.150;2023-02-01T17:08:53;4.40;99.90
17632;DHT22;8934;51.194;17.150;2023-02-01T17:11:43;4.30;99.90
17632;DHT22;8934;51.194;17.150;2023-02-01T17:14:34;4.30;99.90
17632;DHT22;8934;51.194;17.150;2023-02-01T17:17:24;4.20;99.90
17632;DHT22;8934;51.194;17.150;2023-02-01T17:20:24;4.10;99.90
17632;DHT22;8934;51.194;17.150;2023-02-01T17:23:14;4.10;99.90
17632;DHT22;8934;51.194;17.150;2023-02-01T17:26:02;4.10;99.90
17632;DHT22;8934;51.194;17.150;2023-02-01T17:28:51;4.00;99.90
17632;DHT22;8934;51.194;17.150;2023-02-01T17:31:42;4.00;99.90
17632;DHT22;8934;51.194;17.150;2023-02-01T17:34:30;3.90;99.90
17632;DHT22;8934;51.194;17.150;2023-02-01T17:37:22;3.80;99.90
17632;DHT22;8934;51.194;17.150;2023-02-01T17:40:11;3.80;99.90
17632;DHT22;8934;51.194;17.150;2023-02-01T17:42:59;3.70;99.90
17632;DHT22;8934;51.194;17.150;2023-02-01T17:45:51;3.70;99.90
17632;DHT22;8934;51.194;17.150;2023-02-01T17:48:41;3.60;99.90
17632;DHT22;8934;51.194;17.150;2023-02-01T17:51:30;3.60;99.90
17632;DHT22;8934;51.194;17.150;2023-02-01T17:54:17;3.50;99.90
17632;DHT22;8934;51.194;17.150;2023-02-01T17:57:10;3.50;99.90
17632;DHT22;8934;51.194;17.150;2023-02-01T17:59:58;3.40;99.90
17632;DHT22;8934;51.194;17.150;2023-02-01T18:02:47;3.30;99.90
17632;DHT22;8934;51.194;17.150;2023-02-01T18:05:38;3.40;99.90
17632;DHT22;8934;51.194;17.150;2023-02-01T18:08:29;3.50;99.90
17632;DHT22;8934;51.194;17.150;2023-02-01T18:11:19;3.60;99.90
17632;DHT22;8934;51.194;17.150;2023-02-01T18:14:09;3.60;99.90
17632;DHT22;8934;51.194;17.150;2023-02-01T18:16:58;3.70;99.90
17632;DHT22;8934;51.194;17.150;2023-02-01T18:19:48;3.80;99.90
17632;DHT22;8934;51.194;17.150;2023-02-01T18:22:35;4.00;99.90
17632;DHT22;8934;51.194;17.150;2023-02-01T18:25:25;4.00;99.90
17632;DHT22;8934;51.194;17.150;2023-02-01T18:28:13;4.10;99.90
17632;DHT22;8934;51.194;17.150;2023-02-01T18:31:04;4.10;99.90
17632;DHT22;8934;51.194;17.150;2023-02-01T18:33:53;4.10;99.90
17632;DHT22;8934;51.194;17.150;2023-02-01T18:36:43;4.10;99.90
17632;DHT22;8934;51.194;17.150;2023-02-01T18:39:30;4.10;99.90